createdAt,value
2023-03-29T00:01:01.758Z,100180.44
2023-03-29T00:03:29.176Z,100183.31
2023-03-29T00:06:00.195Z,100163.09
2023-03-29T00:08:28.742Z,100165.13
2023-03-29T00:10:56.398Z,100156.75
2023-03-29T00:13:23.447Z,100159.06
2023-03-29T00:15:50.308Z,100164.16
2023-03-29T00:18:17.117Z,100165.38
2023-03-29T00:20:44.064Z,100162.56
2023-03-29T00:23:10.956Z,100167.59
2023-03-29T00:25:44.759Z,100161.66
2023-03-29T00:28:11.802Z,100158.59
2023-03-29T00:30:38.566Z,100153.41
2023-03-29T00:33:07.210Z,100157.19
2023-03-29T00:35:34.355Z,100151.25
2023-03-29T00:38:01.182Z,100151.81
2023-03-29T00:40:28.319Z,100148.03
2023-03-29T00:42:56.631Z,100145.06
2023-03-29T00:45:25.267Z,100140.59
2023-03-29T00:47:58.075Z,100139.41
2023-03-29T00:50:30.965Z,100135.59
2023-03-29T00:53:07.293Z,100136.81
2023-03-29T00:55:39.879Z,100130.97
2023-03-29T00:58:10.897Z,100129.50
2023-03-29T01:00:45.650Z,100124.47
2023-03-29T01:03:16.674Z,100123.63
2023-03-29T01:05:48.384Z,100117.31
2023-03-29T01:08:22.647Z,100120.91
2023-03-29T01:10:56.965Z,100105.91
2023-03-29T01:13:37.376Z,100094.13
2023-03-29T01:16:10.406Z,100082.91
2023-03-29T01:18:38.138Z,100077.16
2023-03-29T01:21:21.039Z,100078.56
2023-03-29T01:24:17.685Z,100078.63
2023-03-29T01:27:02.909Z,100078.19
2023-03-29T01:29:37.771Z,100068.91
2023-03-29T01:32:11.161Z,100077.34
2023-03-29T01:34:47.343Z,100066.78
2023-03-29T01:37:22.187Z,100060.28
2023-03-29T01:39:49.003Z,100053.72
2023-03-29T01:42:42.167Z,100048.53
2023-03-29T01:45:24.522Z,100045.34
2023-03-29T01:47:59.634Z,100038.25
2023-03-29T01:50:42.435Z,100042.53
2023-03-29T01:53:16.938Z,100038.44
2023-03-29T01:55:53.425Z,100028.91
2023-03-29T01:58:23.349Z,100036.19
2023-03-29T02:00:53.518Z,100036.56
2023-03-29T02:03:26.475Z,100026.47
2023-03-29T02:05:57.786Z,100036.94
2023-03-29T02:08:29.952Z,100037.03
2023-03-29T02:10:58.032Z,100022.94
2023-03-29T02:13:24.863Z,100029.34
2023-03-29T02:15:53.124Z,100028.69
2023-03-29T02:18:20.768Z,100018.59
2023-03-29T02:20:52.111Z,100008.16
2023-03-29T02:23:26.728Z,100004.13
2023-03-29T02:25:55.072Z,100003.97
2023-03-29T02:28:24.523Z,100010.72
2023-03-29T02:31:01.612Z,100000.53
2023-03-29T02:33:43.395Z,100001.44
2023-03-29T02:36:16.949Z,100004.63
2023-03-29T02:38:44.569Z,100014.53
2023-03-29T02:41:12.369Z,100006.28
2023-03-29T02:43:42.686Z,100005.53
2023-03-29T02:46:12.474Z,99994.25
2023-03-29T02:48:41.042Z,99988.88
2023-03-29T02:51:19.880Z,99985.69
2023-03-29T02:53:56.424Z,99989.13
2023-03-29T02:56:23.388Z,99981.72
2023-03-29T02:58:50.446Z,99968.03
2023-03-29T03:01:19.077Z,99968.97
2023-03-29T03:03:46.106Z,99966.91
2023-03-29T03:06:13.621Z,99954.56
2023-03-29T03:08:41.643Z,99956.25
2023-03-29T03:11:09.123Z,99953.41
2023-03-29T03:13:36.039Z,99953.75
2023-03-29T03:16:02.966Z,99954.56
2023-03-29T03:18:31.584Z,99955.16
2023-03-29T03:21:00.035Z,99946.72
2023-03-29T03:23:28.070Z,99952.66
2023-03-29T03:25:55.343Z,99949.50
2023-03-29T03:28:23.108Z,99939.78
2023-03-29T03:30:50.733Z,99943.47
2023-03-29T03:33:17.645Z,99940.78
2023-03-29T03:36:07.687Z,99942.84
2023-03-29T03:38:37.290Z,99944.00
2023-03-29T03:41:06.739Z,99944.50
2023-03-29T03:43:34.896Z,99947.47
2023-03-29T03:46:02.140Z,99943.75
2023-03-29T03:48:30.426Z,99942.53
2023-03-29T03:51:11.876Z,99943.75
2023-03-29T03:53:40.912Z,99950.41
2023-03-29T03:56:14.666Z,99946.97
2023-03-29T03:59:00.789Z,99943.38
2023-03-29T04:01:30.026Z,99942.38
2023-03-29T04:04:07.517Z,99934.19
2023-03-29T04:06:36.001Z,99941.91
2023-03-29T04:09:33.005Z,99943.56
2023-03-29T04:12:19.840Z,99954.28
2023-03-29T04:14:46.954Z,99938.00
2023-03-29T04:17:18.912Z,99949.03
2023-03-29T04:19:56.342Z,99958.38
2023-03-29T04:22:25.218Z,99954.59
2023-03-29T04:24:53.232Z,99956.91
2023-03-29T04:27:28.821Z,99959.22
2023-03-29T04:29:59.887Z,99954.50
2023-03-29T04:32:57.715Z,99954.47
2023-03-29T04:35:25.695Z,99962.59
2023-03-29T04:37:53.868Z,99964.53
2023-03-29T04:40:22.604Z,99955.09
2023-03-29T04:43:28.382Z,99952.97
2023-03-29T04:46:03.857Z,99949.72
2023-03-29T04:48:49.721Z,99953.81
2023-03-29T04:51:25.638Z,99954.09
2023-03-29T04:53:56.440Z,99952.72
2023-03-29T04:56:23.878Z,99963.47
2023-03-29T04:59:29.835Z,99958.16
2023-03-29T05:01:57.212Z,99955.94
2023-03-29T05:04:24.378Z,99957.72
2023-03-29T05:07:03.710Z,99952.97
2023-03-29T05:09:35.010Z,99954.47
2023-03-29T05:12:05.552Z,99954.63
2023-03-29T05:14:45.712Z,99954.88
2023-03-29T05:17:12.586Z,99952.59
2023-03-29T05:19:39.565Z,99950.78
2023-03-29T05:22:07.763Z,99956.25
2023-03-29T05:24:37.380Z,99945.81
2023-03-29T05:27:11.096Z,99951.13
2023-03-29T05:29:38.907Z,99955.03
2023-03-29T05:32:20.518Z,99953.47
2023-03-29T05:34:47.809Z,99950.00
2023-03-29T05:37:15.474Z,99951.81
2023-03-29T05:39:51.170Z,99957.75
2023-03-29T05:42:21.211Z,99951.19
2023-03-29T05:44:54.713Z,99947.41
2023-03-29T05:47:22.126Z,99953.44
2023-03-29T05:49:49.054Z,99966.06
2023-03-29T05:52:20.732Z,99970.91
2023-03-29T05:54:47.700Z,99967.69
2023-03-29T05:57:16.999Z,99970.91
2023-03-29T05:59:44.890Z,99973.28
2023-03-29T06:02:12.496Z,99975.47
2023-03-29T06:04:45.210Z,99972.34
2023-03-29T06:07:24.873Z,99971.63
2023-03-29T06:10:12.481Z,99964.97
2023-03-29T06:12:44.841Z,99967.94
2023-03-29T06:15:13.291Z,99975.13
2023-03-29T06:17:49.600Z,99965.78
2023-03-29T06:20:17.427Z,99968.97
2023-03-29T06:22:49.277Z,99965.19
2023-03-29T06:25:17.463Z,99967.06
2023-03-29T06:27:47.924Z,99969.47
2023-03-29T06:30:17.577Z,99966.41
2023-03-29T06:32:51.092Z,99967.13
2023-03-29T06:35:28.420Z,99975.28
2023-03-29T06:38:04.274Z,99967.50
2023-03-29T06:40:51.537Z,99971.97
2023-03-29T06:43:22.043Z,99973.28
2023-03-29T06:46:06.325Z,99980.81
2023-03-29T06:48:44.524Z,99976.53
2023-03-29T06:51:11.627Z,99978.25
2023-03-29T06:53:39.765Z,99981.78
2023-03-29T06:56:07.647Z,99982.63
2023-03-29T06:58:37.955Z,99991.91
2023-03-29T07:01:17.216Z,99984.56
2023-03-29T07:03:56.091Z,99983.44
2023-03-29T07:06:30.029Z,99992.97
2023-03-29T07:08:57.467Z,99983.91
2023-03-29T07:11:43.500Z,99990.47
2023-03-29T07:14:24.973Z,99991.25
2023-03-29T07:16:53.652Z,99984.69
2023-03-29T07:19:29.107Z,99996.78
2023-03-29T07:21:56.620Z,99996.97
2023-03-29T07:24:34.499Z,100004.06
2023-03-29T07:27:04.513Z,100002.81
2023-03-29T07:29:34.427Z,100006.81
2023-03-29T07:32:01.330Z,100002.53
2023-03-29T07:34:43.452Z,100003.19
2023-03-29T07:37:20.318Z,100008.53
2023-03-29T07:39:47.593Z,100009.97
2023-03-29T07:42:35.881Z,100013.25
2023-03-29T07:45:05.296Z,100019.84
2023-03-29T07:47:38.349Z,100013.25
2023-03-29T07:50:08.067Z,100017.56
2023-03-29T07:52:38.287Z,100019.06
2023-03-29T07:55:07.607Z,100012.22
2023-03-29T07:57:57.774Z,100016.97
2023-03-29T08:00:28.152Z,100019.94
2023-03-29T08:03:17.866Z,100008.97
2023-03-29T08:05:44.908Z,100012.47
2023-03-29T08:08:14.956Z,100015.81
2023-03-29T08:10:57.544Z,100016.66
2023-03-29T08:13:41.184Z,100013.31
2023-03-29T08:16:23.136Z,100009.03
2023-03-29T08:18:59.428Z,100002.81
2023-03-29T08:21:39.447Z,100009.72
2023-03-29T08:24:07.964Z,100013.69
2023-03-29T08:26:43.716Z,100009.97
2023-03-29T08:29:10.888Z,99999.00
2023-03-29T08:31:39.737Z,100009.59
2023-03-29T08:34:06.912Z,100013.38
2023-03-29T08:37:01.218Z,100011.94
2023-03-29T08:39:42.301Z,100006.94
2023-03-29T08:43:19.857Z,100006.50
2023-03-29T08:46:27.501Z,100011.06
2023-03-29T08:49:09.236Z,100001.69
2023-03-29T08:51:44.224Z,100008.72
2023-03-29T08:54:18.342Z,100011.44
2023-03-29T08:57:15.911Z,99997.31
2023-03-29T08:59:52.393Z,99992.16
2023-03-29T09:02:26.545Z,99994.69
2023-03-29T09:05:15.165Z,99990.31
2023-03-29T09:07:48.748Z,99992.19
2023-03-29T09:10:20.697Z,100002.38
2023-03-29T09:13:14.772Z,99994.88
2023-03-29T09:15:58.772Z,99993.41
2023-03-29T09:18:48.852Z,99995.28
2023-03-29T09:21:33.707Z,99986.31
2023-03-29T09:24:32.605Z,99992.75
2023-03-29T09:27:12.502Z,99991.47
2023-03-29T09:30:00.775Z,99984.97
2023-03-29T09:32:52.944Z,99991.41
2023-03-29T09:35:30.729Z,99985.25
2023-03-29T09:38:11.977Z,99986.22
2023-03-29T09:40:47.437Z,99982.03
2023-03-29T09:43:30.104Z,99981.78
2023-03-29T09:46:04.381Z,99982.63
2023-03-29T09:48:40.096Z,99970.31
2023-03-29T09:51:10.304Z,99972.78
2023-03-29T09:53:41.098Z,99973.59
2023-03-29T09:56:29.562Z,99975.19
2023-03-29T09:59:13.068Z,99968.59
2023-03-29T10:01:43.520Z,99971.91
2023-03-29T10:04:12.158Z,99964.38
2023-03-29T10:06:48.214Z,99970.47
2023-03-29T10:09:20.853Z,99967.09
2023-03-29T10:11:54.691Z,99977.97
2023-03-29T10:14:35.487Z,99972.28
2023-03-29T10:17:06.283Z,99964.78
2023-03-29T10:19:35.819Z,99959.09
2023-03-29T10:22:07.358Z,99956.22
2023-03-29T10:24:36.084Z,99957.19
2023-03-29T10:27:10.336Z,99964.63
2023-03-29T10:29:41.503Z,99954.72
2023-03-29T10:32:28.170Z,99961.47
2023-03-29T10:35:02.905Z,99947.53
2023-03-29T10:37:31.195Z,99955.91
2023-03-29T10:40:00.300Z,99949.00
2023-03-29T10:42:28.671Z,99954.81
2023-03-29T10:44:58.305Z,99948.72
2023-03-29T10:47:30.967Z,99937.53
2023-03-29T10:49:58.395Z,99932.19
2023-03-29T10:52:26.238Z,99935.56
2023-03-29T10:54:56.476Z,99940.41
2023-03-29T10:57:40.110Z,99935.84
2023-03-29T11:00:20.097Z,99925.44
2023-03-29T11:03:09.073Z,99927.63
2023-03-29T11:05:48.708Z,99918.81
2023-03-29T11:08:37.124Z,99908.75
2023-03-29T11:11:23.339Z,99906.00
2023-03-29T11:14:04.783Z,99907.69
2023-03-29T11:16:50.948Z,99893.66
2023-03-29T11:19:48.928Z,99889.88
2023-03-29T11:22:27.966Z,99887.66
2023-03-29T11:25:13.570Z,99894.66
2023-03-29T11:27:54.124Z,99876.91
2023-03-29T11:30:33.473Z,99885.63
2023-03-29T11:33:31.208Z,99893.34
2023-03-29T11:36:09.236Z,99897.31
2023-03-29T11:38:46.907Z,99889.88
2023-03-29T11:41:18.709Z,99887.00
2023-03-29T11:43:54.228Z,99889.91
2023-03-29T11:46:32.112Z,99883.59
2023-03-29T11:49:08.812Z,99882.28
2023-03-29T11:51:43.861Z,99880.25
2023-03-29T11:54:21.249Z,99877.06
2023-03-29T11:56:59.348Z,99875.41
2023-03-29T11:59:36.416Z,99879.03
2023-03-29T12:02:21.155Z,99875.13
2023-03-29T12:04:53.754Z,99872.41
2023-03-29T12:07:32.539Z,99862.22
2023-03-29T12:10:09.190Z,99863.13
2023-03-29T12:12:46.548Z,99864.03
2023-03-29T12:15:20.592Z,99857.47
2023-03-29T12:18:02.953Z,99858.13
2023-03-29T12:20:37.494Z,99850.06
2023-03-29T12:23:07.605Z,99861.13
2023-03-29T12:25:53.438Z,99858.13
2023-03-29T12:28:50.635Z,99846.91
2023-03-29T12:31:30.366Z,99845.09
2023-03-29T12:34:28.353Z,99850.53
2023-03-29T12:37:16.807Z,99850.94
2023-03-29T12:40:25.348Z,99846.19
2023-03-29T12:43:22.984Z,99838.94
2023-03-29T12:46:18.709Z,99831.91
2023-03-29T12:48:51.003Z,99834.91
2023-03-29T12:51:29.592Z,99827.25
2023-03-29T12:54:08.356Z,99824.56
2023-03-29T12:56:53.236Z,99824.25
2023-03-29T12:59:34.515Z,99828.13
2023-03-29T13:02:23.750Z,99823.25
2023-03-29T13:04:56.714Z,99820.41
2023-03-29T13:07:43.806Z,99826.16
2023-03-29T13:10:36.599Z,99826.47
2023-03-29T13:13:17.437Z,99820.09
2023-03-29T13:15:45.716Z,99813.56
2023-03-29T13:18:38.143Z,99811.06
2023-03-29T13:21:20.667Z,99813.34
2023-03-29T13:24:02.796Z,99813.16
2023-03-29T13:26:46.971Z,99815.56
2023-03-29T13:29:46.742Z,99807.81
2023-03-29T13:32:46.680Z,99809.13
2023-03-29T13:35:29.888Z,99804.75
2023-03-29T13:38:14.303Z,99804.44
2023-03-29T13:40:59.153Z,99799.31
2023-03-29T13:43:37.585Z,99797.19
2023-03-29T13:46:24.178Z,99796.75
2023-03-29T13:49:00.541Z,99799.69
2023-03-29T13:51:38.590Z,99797.28
2023-03-29T13:54:26.133Z,99806.75
2023-03-29T13:57:04.871Z,99802.44
2023-03-29T13:59:42.776Z,99799.94
2023-03-29T14:02:25.180Z,99806.97
2023-03-29T14:04:53.603Z,99799.88
2023-03-29T14:07:23.697Z,99805.25
2023-03-29T14:09:50.869Z,99796.44
2023-03-29T14:12:19.433Z,99797.44
2023-03-29T14:14:58.421Z,99804.78
2023-03-29T14:17:27.598Z,99802.25
2023-03-29T14:19:59.102Z,99806.22
2023-03-29T14:22:34.476Z,99798.03
2023-03-29T14:25:07.228Z,99795.28
2023-03-29T14:27:36.452Z,99801.75
2023-03-29T14:30:27.173Z,99803.50
2023-03-29T14:32:55.106Z,99799.06
2023-03-29T14:35:31.781Z,99791.72
2023-03-29T14:38:00.391Z,99780.22
2023-03-29T14:40:27.350Z,99781.81
2023-03-29T14:42:55.790Z,99774.03
2023-03-29T14:45:23.343Z,99783.59
2023-03-29T14:47:51.716Z,99785.81
2023-03-29T14:50:30.149Z,99769.56
2023-03-29T14:52:59.713Z,99779.31
2023-03-29T14:55:27.313Z,99772.03
2023-03-29T14:57:55.770Z,99764.31
2023-03-29T15:00:28.544Z,99758.84
2023-03-29T15:02:58.709Z,99763.72
2023-03-29T15:05:36.606Z,99754.53
2023-03-29T15:08:06.739Z,99737.31
2023-03-29T15:10:37.384Z,99744.50
2023-03-29T15:13:08.789Z,99734.59
2023-03-29T15:15:39.224Z,99729.16
2023-03-29T15:18:14.293Z,99727.38
2023-03-29T15:20:42.577Z,99722.25
2023-03-29T15:23:23.521Z,99725.03
2023-03-29T15:25:56.045Z,99716.78
2023-03-29T15:28:30.744Z,99717.69
2023-03-29T15:31:07.879Z,99709.28
2023-03-29T15:33:38.558Z,99712.66
2023-03-29T15:36:09.098Z,99703.47
2023-03-29T15:41:09.519Z,99696.66
2023-03-29T15:43:37.921Z,99697.06
2023-03-29T15:46:06.667Z,99694.59
2023-03-29T15:48:35.002Z,99698.69
2023-03-29T15:51:05.451Z,99695.16
2023-03-29T15:53:36.150Z,99692.44
2023-03-29T15:56:07.969Z,99692.94
2023-03-29T15:58:37.540Z,99695.56
2023-03-29T16:01:17.415Z,99691.75
2023-03-29T16:03:46.268Z,99697.38
2023-03-29T16:06:15.816Z,99693.16
2023-03-29T16:08:44.838Z,99689.75
2023-03-29T16:11:13.862Z,99698.34
2023-03-29T16:13:42.224Z,99695.19
2023-03-29T16:16:11.350Z,99692.38
2023-03-29T16:18:38.338Z,99685.00
2023-03-29T16:21:06.498Z,99697.19
2023-03-29T16:23:34.230Z,99686.44
2023-03-29T16:26:01.383Z,99682.69
2023-03-29T16:28:28.415Z,99675.63
2023-03-29T16:30:56.597Z,99685.56
2023-03-29T16:33:24.696Z,99677.38
2023-03-29T16:35:52.112Z,99677.75
2023-03-29T16:38:20.066Z,99672.19
2023-03-29T16:40:46.915Z,99688.53
2023-03-29T16:43:15.905Z,99678.06
2023-03-29T16:45:44.159Z,99676.84
2023-03-29T16:48:15.553Z,99664.47
2023-03-29T16:50:42.471Z,99672.63
2023-03-29T16:53:09.492Z,99666.78
2023-03-29T16:55:36.394Z,99668.81
2023-03-29T16:58:03.195Z,99663.31
2023-03-29T17:00:30.814Z,99663.88
2023-03-29T17:02:57.759Z,99658.91
2023-03-29T17:05:26.045Z,99657.16
2023-03-29T17:07:53.144Z,99647.59
2023-03-29T17:10:20.021Z,99649.97
2023-03-29T17:12:46.905Z,99649.78
2023-03-29T17:15:14.111Z,99653.47
2023-03-29T17:17:41.547Z,99653.91
2023-03-29T17:20:11.140Z,99653.81
2023-03-29T17:22:40.209Z,99654.66
2023-03-29T17:25:08.930Z,99670.00
2023-03-29T17:27:36.868Z,99670.66
2023-03-29T17:30:06.596Z,99663.72
2023-03-29T17:32:33.904Z,99646.28
2023-03-29T17:35:01.285Z,99636.38
2023-03-29T17:37:29.220Z,99646.09
2023-03-29T17:39:58.178Z,99638.00
2023-03-29T17:42:25.004Z,99639.22
2023-03-29T17:44:51.798Z,99650.81
2023-03-29T17:47:20.741Z,99638.66
2023-03-29T17:49:47.566Z,99649.91
2023-03-29T17:52:14.331Z,99628.28
2023-03-29T17:54:41.209Z,99630.16
2023-03-29T17:57:11.024Z,99627.44
2023-03-29T17:59:38.779Z,99618.72
2023-03-29T18:02:05.751Z,99616.47
2023-03-29T18:04:33.347Z,99613.16
2023-03-29T18:07:00.781Z,99620.47
2023-03-29T18:09:34.188Z,99616.47
2023-03-29T18:12:02.476Z,99620.25
2023-03-29T18:14:31.283Z,99617.28
2023-03-29T18:16:58.272Z,99624.16
2023-03-29T18:19:25.678Z,99616.81
2023-03-29T18:21:52.651Z,99624.63
2023-03-29T18:24:19.798Z,99623.19
2023-03-29T18:26:46.975Z,99622.47
2023-03-29T18:29:13.855Z,99621.31
2023-03-29T18:31:44.102Z,99618.97
2023-03-29T18:34:11.183Z,99618.72
2023-03-29T18:36:38.228Z,99616.47
2023-03-29T18:39:06.026Z,99618.59
2023-03-29T18:41:34.640Z,99624.53
2023-03-29T18:44:01.577Z,99623.84
2023-03-29T18:46:29.308Z,99615.94
2023-03-29T18:48:59.485Z,99628.34
2023-03-29T18:51:27.399Z,99616.06
2023-03-29T18:53:55.420Z,99611.44
2023-03-29T18:56:22.481Z,99617.56
2023-03-29T18:58:49.424Z,99623.91
2023-03-29T19:01:16.442Z,99627.00
2023-03-29T19:03:43.666Z,99618.16
2023-03-29T19:06:12.801Z,99624.75
2023-03-29T19:08:39.843Z,99629.94
2023-03-29T19:11:10.609Z,99631.59
2023-03-29T19:13:37.865Z,99631.28
2023-03-29T19:16:05.784Z,99632.31
2023-03-29T19:18:33.567Z,99621.81
2023-03-29T19:21:00.555Z,99622.41
2023-03-29T19:23:29.121Z,99627.84
2023-03-29T19:25:59.402Z,99624.53
2023-03-29T19:28:28.197Z,99607.81
2023-03-29T19:30:58.148Z,99608.28
2023-03-29T19:33:25.202Z,99613.81
2023-03-29T19:35:52.792Z,99608.63
2023-03-29T19:38:20.895Z,99598.47
2023-03-29T19:40:51.600Z,99592.78
2023-03-29T19:43:19.052Z,99595.91
2023-03-29T19:45:48.843Z,99594.59
2023-03-29T19:48:22.335Z,99585.13
2023-03-29T19:50:50.003Z,99577.13
2023-03-29T19:53:17.148Z,99572.25
2023-03-29T19:55:44.557Z,99579.34
2023-03-29T19:58:13.249Z,99582.06
2023-03-29T20:00:40.156Z,99583.00
2023-03-29T20:03:07.725Z,99570.38
2023-03-29T20:05:35.347Z,99553.84
2023-03-29T20:08:02.735Z,99557.34
2023-03-29T20:10:29.851Z,99551.84
2023-03-29T20:12:56.680Z,99550.16
2023-03-29T20:15:25.508Z,99548.41
2023-03-29T20:17:53.080Z,99540.56
2023-03-29T20:20:20.721Z,99540.50
2023-03-29T20:22:48.005Z,99537.78
2023-03-29T20:25:15.185Z,99528.91
2023-03-29T20:27:42.297Z,99532.19
2023-03-29T20:30:11.044Z,99523.03
2023-03-29T20:32:39.702Z,99521.09
2023-03-29T20:35:08.706Z,99521.56
2023-03-29T20:37:35.631Z,99521.56
2023-03-29T20:40:02.929Z,99515.31
2023-03-29T20:42:29.730Z,99508.47
2023-03-29T20:44:56.790Z,99504.47
2023-03-29T20:47:23.743Z,99499.03
2023-03-29T20:49:51.994Z,99489.00
2023-03-29T20:52:18.836Z,99498.13
2023-03-29T20:54:47.828Z,99491.84
2023-03-29T20:57:18.475Z,99497.75
2023-03-29T20:59:46.852Z,99494.56
2023-03-29T21:02:17.059Z,99490.19
2023-03-29T21:04:44.105Z,99485.34
2023-03-29T21:07:12.320Z,99491.47
2023-03-29T21:09:39.413Z,99475.41
2023-03-29T21:12:06.736Z,99470.19
2023-03-29T21:14:33.559Z,99483.53
2023-03-29T21:17:00.578Z,99475.91
2023-03-29T21:19:27.968Z,99476.72
2023-03-29T21:21:55.411Z,99477.44
2023-03-29T21:24:23.722Z,99466.00
2023-03-29T21:26:50.636Z,99456.13
2023-03-29T21:29:17.389Z,99454.44
2023-03-29T21:31:44.196Z,99447.28
2023-03-29T21:34:11.138Z,99447.63
2023-03-29T21:36:38.232Z,99443.56
2023-03-29T21:39:05.199Z,99436.03
2023-03-29T21:41:33.863Z,99435.47
2023-03-29T21:44:00.609Z,99437.09
2023-03-29T21:46:27.536Z,99431.44
2023-03-29T21:48:54.386Z,99431.06
2023-03-29T21:51:21.227Z,99426.22
2023-03-29T21:53:48.188Z,99414.38
2023-03-29T21:56:15.180Z,99418.59
2023-03-29T21:58:43.391Z,99411.66
2023-03-29T22:01:10.768Z,99413.00
2023-03-29T22:03:38.027Z,99411.66
2023-03-29T22:06:07.627Z,99412.50
2023-03-29T22:08:34.594Z,99414.00
2023-03-29T22:11:08.752Z,99410.88
2023-03-29T22:13:35.769Z,99408.19
2023-03-29T22:16:05.583Z,99405.38
2023-03-29T22:18:35.844Z,99410.66
2023-03-29T22:21:02.994Z,99417.81
2023-03-29T22:23:29.880Z,99411.50
2023-03-29T22:25:56.858Z,99414.47
2023-03-29T22:28:23.599Z,99422.03
2023-03-29T22:30:50.380Z,99410.56
2023-03-29T22:33:18.615Z,99414.72
2023-03-29T22:35:45.573Z,99405.97
2023-03-29T22:38:12.402Z,99410.03
2023-03-29T22:40:39.914Z,99414.13
2023-03-29T22:43:06.747Z,99412.28
2023-03-29T22:45:33.551Z,99401.84
2023-03-29T22:48:00.442Z,99407.28
2023-03-29T22:50:28.638Z,99403.50
2023-03-29T22:52:55.417Z,99405.97
2023-03-29T22:55:22.278Z,99408.91
2023-03-29T22:57:49.138Z,99407.31
2023-03-29T23:00:16.776Z,99408.19
2023-03-29T23:02:43.618Z,99409.22
2023-03-29T23:05:10.480Z,99407.16
2023-03-29T23:07:38.883Z,99405.78
2023-03-29T23:10:07.911Z,99395.13
2023-03-29T23:12:34.891Z,99392.84
2023-03-29T23:15:02.770Z,99401.75
2023-03-29T23:17:29.746Z,99408.28
2023-03-29T23:19:56.628Z,99394.66
2023-03-29T23:22:23.553Z,99405.22
2023-03-29T23:24:51.703Z,99395.91
2023-03-29T23:27:18.967Z,99397.81
2023-03-29T23:29:45.735Z,99405.72
2023-03-29T23:32:13.693Z,99403.00
2023-03-29T23:34:40.561Z,99406.81
2023-03-29T23:37:07.624Z,99398.06
2023-03-29T23:39:34.421Z,99400.53
2023-03-29T23:42:02.638Z,99401.09
2023-03-29T23:44:29.519Z,99415.75
2023-03-29T23:46:56.328Z,99425.75
2023-03-29T23:49:23.268Z,99437.47
2023-03-29T23:51:50.116Z,99447.41
2023-03-29T23:54:16.952Z,99427.97
2023-03-29T23:56:43.760Z,99420.75
2023-03-29T23:59:11.868Z,99415.63
